Al Kharsaah — C6VG3 — position and weather

sailwx.info

Track history (hours):
 
Tides and Currents Weather Stations Pressure Air Temp Water Temp Dewpoint Dewpoint Depression Visibility Wind Speed Wind Dir Waves Ship Positions

Al Kharsaah

Last reported at 2016-Jul-11 07:32 UTC. Time now 2016-Jul-26 04:35 UTC.
Position N 01°56' E 102°17'.
Warning: this ship's position is 14 days out of date.

Length 315 m; draft 9.3 m.

Type: Ship (hazmat cat D). MMSI: 309333000.

Date/timePositionNaut miles runAvg speedWind from/ knotsBaromVisibWave heightAir tempDewpointWater temp
2016-Jul-11 07:32N 01°56' E 102°17'1615.9
2016-Jul-11 06:33N 01°49' E 102°32'7915.8
2016-Jul-11 01:33N 01°10' E 103°40'1211.7
2016-Jul-11 00:33N 01°12' E 103°52'1211.7
2016-Jul-10 23:32N 01°16' E 104°03'  
2016-Jul-03 14:13N 34°55' E 139°23'1317.8
2016-Jul-03 13:27N 35°02' E 139°37'1314.5
2016-Jul-03 12:33N 35°12' E 139°46'1111.3
2016-Jul-03 11:33N 35°23' E 139°42'6 5.9
2016-Jul-03 10:33N 35°21' E 139°49'0 0.4
2016-Jul-03 09:32N 35°21' E 139°49'0 0.0
2016-Jul-03 08:32N 35°21' E 139°49'0 0.0
2016-Jul-03 07:32N 35°21' E 139°49'0 0.0
2016-Jul-03 06:29N 35°21' E 139°49'0 0.0
2016-Jul-03 05:32N 35°21' E 139°49'0 0.0
2016-Jul-03 04:32N 35°21' E 139°49'0 0.0
2016-Jul-03 03:32N 35°21' E 139°49'0 0.0
2016-Jul-03 02:32N 35°21' E 139°49'0 0.0
2016-Jul-03 01:32N 35°21' E 139°49'0 0.0
2016-Jul-03 00:32N 35°21' E 139°49'0 0.0
2016-Jul-02 23:32N 35°21' E 139°49'0 0.0
2016-Jul-02 22:32N 35°21' E 139°49'0 0.0
2016-Jul-02 21:32N 35°21' E 139°49'0 0.0
2016-Jul-02 20:32N 35°21' E 139°49'0 0.0
2016-Jul-02 19:32N 35°21' E 139°49'0 0.0
2016-Jul-02 18:32N 35°21' E 139°49'0 0.0
2016-Jul-02 17:32N 35°21' E 139°49'0 0.0
2016-Jul-02 16:32N 35°21' E 139°49'0 0.0
2016-Jul-02 15:32N 35°21' E 139°49'0 0.0
2016-Jul-02 14:29N 35°21' E 139°49'0 0.0
2016-Jul-02 13:32N 35°21' E 139°49'0 0.0
2016-Jul-02 12:32N 35°21' E 139°49'0 0.0
2016-Jul-02 11:32N 35°21' E 139°49'0 0.0
2016-Jul-02 10:32N 35°21' E 139°49'0 0.0
2016-Jul-02 09:32N 35°21' E 139°49'0 0.0
2016-Jul-02 08:32N 35°21' E 139°49'0 0.0
2016-Jul-02 07:32N 35°21' E 139°49'0 0.0
2016-Jul-02 06:32N 35°21' E 139°49'0 0.0
2016-Jul-02 04:32N 35°21' E 139°49'0 0.0
2016-Jul-02 03:32N 35°21' E 139°49'0 0.0
2016-Jul-02 02:32N 35°21' E 139°49'0 0.0
2016-Jul-02 01:32N 35°21' E 139°49'0 0.0
2016-Jul-02 00:32N 35°21' E 139°49'2 2.5
2016-Jul-01 23:33N 35°23' E 139°48'5 5.4
2016-Jul-01 22:33N 35°18' E 139°44'10 9.6
2016-Jul-01 21:33N 35°09' E 139°47'8 7.9
2016-Jul-01 20:33N 35°02' E 139°42'1510.9
2016-Jul-01 19:10N 34°53' E 139°27'  
Track history (hours):
 
Tides and Currents Weather Stations Pressure Air Temp Water Temp Dewpoint Dewpoint Depression Visibility Wind Speed Wind Dir Waves Ship Positions

Al Kharsaah

Last reported at 2016-Jul-11 07:32 UTC. Time now 2016-Jul-26 04:35 UTC.
Position N 01°56' E 102°17'.
Warning: this ship's position is 14 days out of date.

Length 315 m; draft 9.3 m.

Type: Ship (hazmat cat D). MMSI: 309333000.

Date/timePositionNaut miles runAvg speedWind from/ knotsBaromVisibWave heightAir tempDewpointWater temp
2016-Jul-11 07:32N 01°56' E 102°17'1615.9
2016-Jul-11 06:33N 01°49' E 102°32'7915.8
2016-Jul-11 01:33N 01°10' E 103°40'1211.7
2016-Jul-11 00:33N 01°12' E 103°52'1211.7
2016-Jul-10 23:32N 01°16' E 104°03'  
2016-Jul-03 14:13N 34°55' E 139°23'1317.8
2016-Jul-03 13:27N 35°02' E 139°37'1314.5
2016-Jul-03 12:33N 35°12' E 139°46'1111.3
2016-Jul-03 11:33N 35°23' E 139°42'6 5.9
2016-Jul-03 10:33N 35°21' E 139°49'0 0.4
2016-Jul-03 09:32N 35°21' E 139°49'0 0.0
2016-Jul-03 08:32N 35°21' E 139°49'0 0.0
2016-Jul-03 07:32N 35°21' E 139°49'0 0.0
2016-Jul-03 06:29N 35°21' E 139°49'0 0.0
2016-Jul-03 05:32N 35°21' E 139°49'0 0.0
2016-Jul-03 04:32N 35°21' E 139°49'0 0.0
2016-Jul-03 03:32N 35°21' E 139°49'0 0.0
2016-Jul-03 02:32N 35°21' E 139°49'0 0.0
2016-Jul-03 01:32N 35°21' E 139°49'0 0.0
2016-Jul-03 00:32N 35°21' E 139°49'0 0.0
2016-Jul-02 23:32N 35°21' E 139°49'0 0.0
2016-Jul-02 22:32N 35°21' E 139°49'0 0.0
2016-Jul-02 21:32N 35°21' E 139°49'0 0.0
2016-Jul-02 20:32N 35°21' E 139°49'0 0.0
2016-Jul-02 19:32N 35°21' E 139°49'0 0.0
2016-Jul-02 18:32N 35°21' E 139°49'0 0.0
2016-Jul-02 17:32N 35°21' E 139°49'0 0.0
2016-Jul-02 16:32N 35°21' E 139°49'0 0.0
2016-Jul-02 15:32N 35°21' E 139°49'0 0.0
2016-Jul-02 14:29N 35°21' E 139°49'0 0.0
2016-Jul-02 13:32N 35°21' E 139°49'0 0.0
2016-Jul-02 12:32N 35°21' E 139°49'0 0.0
2016-Jul-02 11:32N 35°21' E 139°49'0 0.0
2016-Jul-02 10:32N 35°21' E 139°49'0 0.0
2016-Jul-02 09:32N 35°21' E 139°49'0 0.0
2016-Jul-02 08:32N 35°21' E 139°49'0 0.0
2016-Jul-02 07:32N 35°21' E 139°49'0 0.0
2016-Jul-02 06:32N 35°21' E 139°49'0 0.0
2016-Jul-02 04:32N 35°21' E 139°49'0 0.0
2016-Jul-02 03:32N 35°21' E 139°49'0 0.0
2016-Jul-02 02:32N 35°21' E 139°49'0 0.0
2016-Jul-02 01:32N 35°21' E 139°49'0 0.0
2016-Jul-02 00:32N 35°21' E 139°49'2 2.5
2016-Jul-01 23:33N 35°23' E 139°48'5 5.4
2016-Jul-01 22:33N 35°18' E 139°44'10 9.6
2016-Jul-01 21:33N 35°09' E 139°47'8 7.9
2016-Jul-01 20:33N 35°02' E 139°42'1510.9
2016-Jul-01 19:10N 34°53' E 139°27'  

Dump ship's entire track history